Flugplatz Görlitz (EDBX)

Hier findest Du alle Informationen zum Flugplatz Görlitz (EDBX).

Informationen für Piloten zum Flugplatz Görlitz

Hier findest Du alle relevanten Informationen, die Du als Pilot benötigst, um Görlitz anzufliegen.

Flugplatz: Görlitz ICAO-Code: EDBX
Frequenz Turm: 122,000 Mhz GAFOR Gebiet: 26
Frequenz Ground: 122,000 Mhz Mogas: nein
Platzrunde: N 1600 ft Landegebühr: -
Platzhöhe: 778 ft Sunrise: 02:43 Uhr UTC
Pisten: 06/24 - 750 m x 40 m, GRAS Sunset: 19:21 Uhr UTC

Mitglieder, die in Görlitz fliegen

Flugwetter am Flugplatz Görlitz

Die METAR Information stammen aus EDDC (82.51 km entfernt).

METAR Code:
2024/05/01 08:20
EDDC 010820Z AUTO 14017G27KT 120V180 CAVOK 21/07 Q1011 TEMPO 16020G30KT

Flugschulen am Flugplatz Görlitz

Am Flugplatz Görlitz gibt es leider keine Flugschule.

Benachbarte Flugplätze und Flugschulen

Es gibt 5 weitere Flugplätze in einem Umkreis von 50 km um den Flugplatz Görlitz.

Flugplatz Rothenburg/O.L. EDBR 22.75 km
Flugplatz Bautzen EDAB 30.12 km
Flugplatz Klix EDCI 33.43 km
Flugplatz Rumburg Privat UL Platz 33.81 km
Flugplatz Chřibská UL Platz 47.56 km
Jetzt anmelden

Passwort vergessen

Umfrage Archiv

Wie häufig haltet Ihr die Halbkreisflugregel ein?

Eher häufig!
36 %
Immer!
30.7 %
Hin und wieder!
16.7 %
Nie!
9.5 %
Eher selten!
7.2 %
Stimmen: 264 | Diskussion
Anzeige: Roland Aircraft
Statistik Alle Mitglieder

Aktuell sind 32 Besucher online.

Anzeige: EasyVFR